createdAt,value
2019-04-03T00:01:12.559Z,99.90
2019-04-03T00:03:43.045Z,99.90
2019-04-03T00:06:13.406Z,99.90
2019-04-03T00:08:43.759Z,99.70
2019-04-03T00:11:14.160Z,99.40
2019-04-03T00:13:44.593Z,99.20
2019-04-03T00:16:19.818Z,99.30
2019-04-03T00:18:52.555Z,99.40
2019-04-03T00:21:22.986Z,99.40
2019-04-03T00:23:54.611Z,99.30
2019-04-03T00:26:25.174Z,99.50
2019-04-03T00:28:55.749Z,99.60
2019-04-03T00:31:26.523Z,99.60
2019-04-03T00:33:56.968Z,99.80
2019-04-03T00:36:27.431Z,99.90
2019-04-03T00:38:57.875Z,99.90
2019-04-03T00:41:28.244Z,99.90
2019-04-03T00:43:58.727Z,99.90
2019-04-03T00:46:29.138Z,99.90
2019-04-03T00:48:59.550Z,99.90
2019-04-03T00:51:29.975Z,99.90
2019-04-03T00:54:00.411Z,99.90
2019-04-03T00:56:30.799Z,99.90
2019-04-03T00:59:01.223Z,99.90
2019-04-03T01:01:31.600Z,99.90
2019-04-03T01:04:01.962Z,99.90
2019-04-03T01:06:32.543Z,99.90
2019-04-03T01:09:03.170Z,99.90
2019-04-03T01:11:33.672Z,99.90
2019-04-03T01:14:04.167Z,99.90
2019-04-03T01:16:35.316Z,99.90
2019-04-03T01:19:13.300Z,99.90
2019-04-03T01:21:50.594Z,99.90
2019-04-03T01:24:22.221Z,99.90
2019-04-03T01:26:54.463Z,99.90
2019-04-03T01:29:25.064Z,99.80
2019-04-03T01:31:55.548Z,99.20
2019-04-03T01:34:25.941Z,98.70
2019-04-03T01:36:57.222Z,98.50
2019-04-03T01:39:28.838Z,98.20
2019-04-03T01:42:00.042Z,97.60
2019-04-03T01:44:30.401Z,97.60
2019-04-03T01:47:02.810Z,97.50
2019-04-03T01:49:33.232Z,97.40
2019-04-03T01:52:03.619Z,97.30
2019-04-03T01:54:34.105Z,97.80
2019-04-03T01:57:05.996Z,98.00
2019-04-03T01:59:37.559Z,97.80
2019-04-03T02:02:09.094Z,97.60
2019-04-03T02:04:42.094Z,97.50
2019-04-03T02:07:14.183Z,97.80
2019-04-03T02:09:46.138Z,98.00
2019-04-03T02:12:16.211Z,98.30
2019-04-03T02:14:46.687Z,98.70
2019-04-03T02:17:17.080Z,98.40
2019-04-03T02:19:47.958Z,98.70
2019-04-03T02:22:18.318Z,98.50
2019-04-03T02:24:48.781Z,98.80
2019-04-03T02:27:19.552Z,98.90
2019-04-03T02:29:50.053Z,99.10
2019-04-03T02:32:23.454Z,99.40
2019-04-03T02:34:52.773Z,99.00
2019-04-03T02:37:23.993Z,98.80
2019-04-03T02:39:59.126Z,98.60
2019-04-03T02:42:26.924Z,98.40
2019-04-03T02:44:57.388Z,98.40
2019-04-03T02:47:27.870Z,98.50
2019-04-03T02:49:58.442Z,97.90
2019-04-03T02:52:28.838Z,98.10
2019-04-03T02:54:59.419Z,97.80
2019-04-03T02:57:29.979Z,97.90
2019-04-03T03:00:01.041Z,97.80
2019-04-03T03:02:31.579Z,98.10
2019-04-03T03:05:01.969Z,98.50
2019-04-03T03:07:35.761Z,98.80
2019-04-03T03:10:05.345Z,99.70
2019-04-03T03:12:37.292Z,99.60
2019-04-03T03:15:10.896Z,99.90
2019-04-03T03:17:40.787Z,99.90
2019-04-03T03:20:11.775Z,99.90
2019-04-03T03:22:42.500Z,99.90
2019-04-03T03:25:13.015Z,99.90
2019-04-03T03:27:44.591Z,99.90
2019-04-03T03:30:34.168Z,99.90
2019-04-03T03:32:48.333Z,99.90
2019-04-03T03:35:28.067Z,99.90
2019-04-03T03:37:52.237Z,99.90
2019-04-03T03:40:22.939Z,99.90
2019-04-03T03:42:53.680Z,99.90
2019-04-03T03:45:26.323Z,99.90
2019-04-03T03:47:56.997Z,99.90
2019-04-03T03:50:30.029Z,99.90
2019-04-03T03:53:00.975Z,99.90
2019-04-03T03:55:32.452Z,99.90
2019-04-03T03:58:03.173Z,99.90
2019-04-03T04:00:33.917Z,99.90
2019-04-03T04:03:08.631Z,99.90
2019-04-03T04:05:37.470Z,99.90
2019-04-03T04:08:10.531Z,99.90
2019-04-03T04:10:40.217Z,99.90
2019-04-03T04:13:13.594Z,99.90
2019-04-03T04:15:43.894Z,99.90
2019-04-03T04:18:15.552Z,99.90
2019-04-03T04:20:46.904Z,99.90
2019-04-03T04:23:17.610Z,99.90
2019-04-03T04:25:48.264Z,99.90
2019-04-03T04:28:19.369Z,99.90
2019-04-03T04:30:50.466Z,99.90
2019-04-03T04:33:21.926Z,99.90
2019-04-03T04:35:53.233Z,99.90
2019-04-03T04:38:26.774Z,99.90
2019-04-03T04:40:57.196Z,99.90
2019-04-03T04:43:27.686Z,99.90
2019-04-03T04:45:58.721Z,99.90
2019-04-03T04:48:29.227Z,99.90
2019-04-03T04:50:59.755Z,99.90
2019-04-03T04:53:30.247Z,99.90
2019-04-03T04:56:01.069Z,99.90
2019-04-03T04:58:31.717Z,99.90
2019-04-03T05:01:06.204Z,99.90
2019-04-03T05:03:37.405Z,99.90
2019-04-03T05:06:07.791Z,99.90
2019-04-03T05:08:38.303Z,99.90
2019-04-03T05:11:08.727Z,99.90
2019-04-03T05:13:39.120Z,99.90
2019-04-03T05:16:09.502Z,99.90
2019-04-03T05:18:39.912Z,99.90
2019-04-03T05:21:10.306Z,99.90
2019-04-03T05:23:41.590Z,99.90
2019-04-03T05:26:12.006Z,99.90
2019-04-03T05:28:54.314Z,99.90
2019-04-03T05:31:14.544Z,99.90
2019-04-03T05:33:45.082Z,99.90
2019-04-03T05:36:17.718Z,99.90
2019-04-03T05:38:47.961Z,99.90
2019-04-03T05:41:18.358Z,99.90
2019-04-03T05:43:48.944Z,99.90
2019-04-03T05:46:21.810Z,99.90
2019-04-03T05:48:53.004Z,99.90
2019-04-03T05:51:23.392Z,99.90
2019-04-03T05:53:54.569Z,99.90
2019-04-03T05:56:25.058Z,99.70
2019-04-03T05:58:59.010Z,99.90
2019-04-03T06:01:27.660Z,98.50
2019-04-03T06:03:58.039Z,98.00
2019-04-03T06:06:28.454Z,96.60
2019-04-03T06:08:58.856Z,95.00
2019-04-03T06:11:29.341Z,94.20
2019-04-03T06:13:59.740Z,93.80
2019-04-03T06:16:30.149Z,93.60
2019-04-03T06:19:00.560Z,91.70
2019-04-03T06:21:30.963Z,88.30
2019-04-03T06:24:01.577Z,86.70
2019-04-03T06:26:32.332Z,80.80
2019-04-03T06:29:02.942Z,76.80
2019-04-03T06:31:36.409Z,73.90
2019-04-03T06:34:07.343Z,70.10
2019-04-03T06:36:38.218Z,68.60
2019-04-03T06:39:08.839Z,70.00
2019-04-03T06:41:41.501Z,70.30
2019-04-03T06:44:11.379Z,75.90
2019-04-03T06:46:41.815Z,72.00
2019-04-03T06:49:12.368Z,72.50
2019-04-03T06:51:43.585Z,72.90
2019-04-03T06:54:14.061Z,72.60
2019-04-03T06:56:44.566Z,66.90
2019-04-03T06:59:16.471Z,63.10
2019-04-03T07:01:47.814Z,62.60
2019-04-03T07:04:18.259Z,64.40
2019-04-03T07:06:48.873Z,63.50
2019-04-03T07:09:23.949Z,63.60
2019-04-03T07:11:51.496Z,61.40
2019-04-03T07:14:21.951Z,60.40
2019-04-03T07:16:52.831Z,60.30
2019-04-03T07:19:23.236Z,58.70
2019-04-03T07:21:55.130Z,57.60
2019-04-03T07:24:25.782Z,52.80
2019-04-03T07:26:56.174Z,52.00
2019-04-03T07:29:27.015Z,51.80
2019-04-03T07:31:58.365Z,48.70
2019-04-03T07:34:34.249Z,49.60
2019-04-03T07:37:04.184Z,46.70
2019-04-03T07:39:34.926Z,44.80
2019-04-03T07:42:06.161Z,43.90
2019-04-03T07:44:36.575Z,44.20
2019-04-03T07:47:06.987Z,45.70
2019-04-03T07:49:37.726Z,47.60
2019-04-03T07:52:12.486Z,50.80
2019-04-03T07:54:42.998Z,52.00
2019-04-03T07:57:16.068Z,55.30
2019-04-03T07:59:45.540Z,58.10
2019-04-03T08:02:16.259Z,60.70
2019-04-03T08:04:47.054Z,63.60
2019-04-03T08:07:18.531Z,67.70
2019-04-03T08:09:48.985Z,67.10
2019-04-03T08:12:19.674Z,68.70
2019-04-03T08:14:50.139Z,68.70
2019-04-03T08:17:20.627Z,69.60
2019-04-03T08:19:53.601Z,70.40
2019-04-03T08:22:23.567Z,69.20
2019-04-03T08:24:54.316Z,69.20
2019-04-03T08:27:28.228Z,68.00
2019-04-03T08:30:02.773Z,68.80
2019-04-03T08:32:38.089Z,68.00
2019-04-03T08:35:21.141Z,70.90
2019-04-03T08:37:49.107Z,71.10
2019-04-03T08:40:23.079Z,69.10
2019-04-03T08:42:54.847Z,69.00
2019-04-03T08:45:25.662Z,69.50
2019-04-03T08:47:56.073Z,71.20
2019-04-03T08:50:26.796Z,70.90
2019-04-03T08:52:59.172Z,70.90
2019-04-03T08:55:29.730Z,69.20
2019-04-03T08:58:01.099Z,71.10
2019-04-03T09:00:32.918Z,69.80
2019-04-03T09:03:04.446Z,72.00
2019-04-03T09:05:35.228Z,65.70
2019-04-03T09:08:05.797Z,58.60
2019-04-03T09:10:37.543Z,54.30
2019-04-03T09:13:17.015Z,51.20
2019-04-03T09:15:40.219Z,48.90
2019-04-03T09:18:10.669Z,46.90
2019-04-03T09:20:44.539Z,42.60
2019-04-03T09:23:15.000Z,44.40
2019-04-03T09:25:45.415Z,44.80
2019-04-03T09:28:16.136Z,44.40
2019-04-03T09:30:47.910Z,46.30
2019-04-03T09:33:18.863Z,45.80
2019-04-03T09:35:49.391Z,44.40
2019-04-03T09:38:19.860Z,44.80
2019-04-03T09:40:50.508Z,45.70
2019-04-03T09:43:22.275Z,45.10
2019-04-03T09:45:54.144Z,46.10
2019-04-03T09:48:24.570Z,47.90
2019-04-03T09:50:54.971Z,46.20
2019-04-03T09:53:26.353Z,46.90
2019-04-03T09:55:58.083Z,46.80
2019-04-03T09:58:28.489Z,47.30
2019-04-03T10:00:58.931Z,48.00
2019-04-03T10:03:31.517Z,46.20
2019-04-03T10:06:01.619Z,46.10
2019-04-03T10:08:32.414Z,46.10
2019-04-03T10:11:02.818Z,46.60
2019-04-03T10:13:33.250Z,46.10
2019-04-03T10:16:04.405Z,46.30
2019-04-03T10:18:35.058Z,46.40
2019-04-03T10:21:05.639Z,48.60
2019-04-03T10:23:36.662Z,49.00
2019-04-03T10:26:08.727Z,48.70
2019-04-03T10:28:41.889Z,47.80
2019-04-03T10:31:11.694Z,47.80
2019-04-03T10:33:42.374Z,47.90
2019-04-03T10:36:12.799Z,46.00
2019-04-03T10:38:43.240Z,44.90
2019-04-03T10:41:14.351Z,45.20
2019-04-03T10:43:44.733Z,44.00
2019-04-03T10:46:17.927Z,44.00
2019-04-03T10:48:47.231Z,45.40
2019-04-03T10:51:20.956Z,45.00
2019-04-03T10:53:52.544Z,44.50
2019-04-03T10:56:23.535Z,44.10
2019-04-03T10:59:09.885Z,45.40
2019-04-03T11:01:30.369Z,45.20
2019-04-03T11:04:00.758Z,44.10
2019-04-03T11:06:31.625Z,45.60
2019-04-03T11:09:02.425Z,46.00
2019-04-03T11:11:32.839Z,47.30
2019-04-03T11:14:06.344Z,46.90
2019-04-03T11:16:36.219Z,45.20
2019-04-03T11:19:07.562Z,44.00
2019-04-03T11:21:39.257Z,44.90
2019-04-03T11:24:10.180Z,44.20
2019-04-03T11:26:40.703Z,43.80
2019-04-03T11:29:14.908Z,44.20
2019-04-03T11:31:48.699Z,42.20
2019-04-03T11:34:21.536Z,42.80
2019-04-03T11:36:56.183Z,42.00
2019-04-03T11:39:27.713Z,43.10
2019-04-03T11:41:58.801Z,43.10
2019-04-03T11:44:29.370Z,44.50
2019-04-03T11:47:00.144Z,44.90
2019-04-03T11:49:30.604Z,43.50
2019-04-03T11:52:01.966Z,44.60
2019-04-03T11:54:32.844Z,45.10
2019-04-03T11:57:03.387Z,45.80
2019-04-03T11:59:33.818Z,45.50
2019-04-03T12:02:05.831Z,47.30
2019-04-03T12:04:36.439Z,44.90
2019-04-03T12:07:07.159Z,44.20
2019-04-03T12:09:38.088Z,42.90
2019-04-03T12:12:10.185Z,42.30
2019-04-03T12:14:41.240Z,42.70
2019-04-03T12:17:11.938Z,39.60
2019-04-03T12:19:45.353Z,41.30
2019-04-03T12:22:14.818Z,36.80
2019-04-03T12:24:45.250Z,36.40
2019-04-03T12:27:16.251Z,37.20
2019-04-03T12:29:47.858Z,36.80
2019-04-03T12:32:18.647Z,36.50
2019-04-03T12:34:51.994Z,35.60
2019-04-03T12:37:25.002Z,34.90
2019-04-03T12:39:55.361Z,34.50
2019-04-03T12:42:26.781Z,35.80
2019-04-03T12:45:00.381Z,36.20
2019-04-03T12:47:36.629Z,37.00
2019-04-03T12:50:15.426Z,37.50
2019-04-03T12:52:53.872Z,37.80
2019-04-03T12:55:30.569Z,38.20
2019-04-03T12:58:02.335Z,38.70
2019-04-03T13:00:33.203Z,37.40
2019-04-03T13:03:03.613Z,38.30
2019-04-03T13:05:36.375Z,37.00
2019-04-03T13:08:06.395Z,38.50
2019-04-03T13:10:42.687Z,39.30
2019-04-03T13:13:09.457Z,39.00
2019-04-03T13:15:40.228Z,39.20
2019-04-03T13:18:10.986Z,39.80
2019-04-03T13:20:41.443Z,40.20
2019-04-03T13:23:13.773Z,41.80
2019-04-03T13:25:44.235Z,41.40
2019-04-03T13:28:14.794Z,42.20
2019-04-03T13:30:45.226Z,43.10
2019-04-03T13:33:17.308Z,43.80
2019-04-03T13:35:49.528Z,44.00
2019-04-03T13:38:20.573Z,45.10
2019-04-03T13:40:51.557Z,45.10
2019-04-03T13:43:22.679Z,44.20
2019-04-03T13:45:53.704Z,45.40
2019-04-03T13:48:24.138Z,45.00
2019-04-03T13:50:56.177Z,46.60
2019-04-03T13:53:27.618Z,44.60
2019-04-03T13:55:58.303Z,42.90
2019-04-03T13:58:29.653Z,43.00
2019-04-03T14:01:02.795Z,42.60
2019-04-03T14:03:32.219Z,42.60
2019-04-03T14:06:04.473Z,42.00
2019-04-03T14:08:34.771Z,42.60
2019-04-03T14:11:05.321Z,43.30
2019-04-03T14:13:35.855Z,44.70
2019-04-03T14:16:19.059Z,43.70
2019-04-03T14:18:39.769Z,44.40
2019-04-03T14:21:12.154Z,44.90
2019-04-03T14:23:42.694Z,44.30
2019-04-03T14:26:15.159Z,44.20
2019-04-03T14:28:45.726Z,44.20
2019-04-03T14:31:17.839Z,45.10
2019-04-03T14:33:48.554Z,45.90
2019-04-03T14:36:19.625Z,45.30
2019-04-03T14:38:51.340Z,45.70
2019-04-03T14:41:21.929Z,44.50
2019-04-03T14:43:52.551Z,43.50
2019-04-03T14:46:23.629Z,43.40
2019-04-03T14:48:54.348Z,43.40
2019-04-03T14:51:25.076Z,43.30
2019-04-03T14:53:55.711Z,44.00
2019-04-03T14:56:26.208Z,44.70
2019-04-03T14:58:58.576Z,45.30
2019-04-03T15:01:28.890Z,45.30
2019-04-03T15:04:00.767Z,45.40
2019-04-03T15:06:32.256Z,47.50
2019-04-03T15:09:02.788Z,46.60
2019-04-03T15:11:34.947Z,45.80
2019-04-03T15:14:06.340Z,46.20
2019-04-03T15:16:36.861Z,46.50
2019-04-03T15:19:07.279Z,47.00
2019-04-03T15:21:38.078Z,47.30
2019-04-03T15:24:10.917Z,47.30
2019-04-03T15:26:40.914Z,47.00
2019-04-03T15:29:14.470Z,47.00
2019-04-03T15:31:46.814Z,46.10
2019-04-03T15:34:17.400Z,46.70
2019-04-03T15:36:50.571Z,46.70
2019-04-03T15:39:20.774Z,48.10
2019-04-03T15:41:53.367Z,48.30
2019-04-03T15:44:26.700Z,49.50
2019-04-03T15:46:59.277Z,49.90
2019-04-03T15:49:32.231Z,50.50
2019-04-03T15:52:02.782Z,52.00
2019-04-03T15:54:34.014Z,51.60
2019-04-03T15:57:08.049Z,51.60
2019-04-03T15:59:38.859Z,52.20
2019-04-03T16:02:12.907Z,53.00
2019-04-03T16:04:44.105Z,53.50
2019-04-03T16:07:15.000Z,54.10
2019-04-03T16:09:45.522Z,54.80
2019-04-03T16:12:15.948Z,56.40
2019-04-03T16:14:46.868Z,55.20
2019-04-03T16:17:17.724Z,55.20
2019-04-03T16:19:48.676Z,56.60
2019-04-03T16:22:19.353Z,56.40
2019-04-03T16:24:49.803Z,56.20
2019-04-03T16:27:20.581Z,56.00
2019-04-03T16:29:51.532Z,55.60
2019-04-03T16:32:26.940Z,56.70
2019-04-03T16:34:56.979Z,56.50
2019-04-03T16:37:27.962Z,58.40
2019-04-03T16:39:58.471Z,59.10
2019-04-03T16:42:28.911Z,59.40
2019-04-03T16:45:02.647Z,59.30
2019-04-03T16:47:31.516Z,59.00
2019-04-03T16:50:01.924Z,59.50
2019-04-03T16:52:32.484Z,59.50
2019-04-03T16:55:03.255Z,60.10
2019-04-03T16:57:33.951Z,59.50
2019-04-03T17:00:08.407Z,60.40
2019-04-03T17:02:38.333Z,60.10
2019-04-03T17:05:11.338Z,60.30
2019-04-03T17:07:42.415Z,60.30
2019-04-03T17:10:13.531Z,60.30
2019-04-03T17:12:45.638Z,61.10
2019-04-03T17:15:16.726Z,61.00
2019-04-03T17:17:47.577Z,61.30
2019-04-03T17:20:18.565Z,60.60
2019-04-03T17:22:49.055Z,60.50
2019-04-03T17:25:19.642Z,60.90
2019-04-03T17:27:56.408Z,61.30
2019-04-03T17:30:22.540Z,59.80
2019-04-03T17:32:54.510Z,59.60
2019-04-03T17:35:25.630Z,60.40
2019-04-03T17:37:58.998Z,59.60
2019-04-03T17:40:29.068Z,59.80
2019-04-03T17:42:59.536Z,61.70
2019-04-03T17:45:29.986Z,61.70
2019-04-03T17:48:00.402Z,62.40
2019-04-03T17:50:30.803Z,63.60
2019-04-03T17:53:01.247Z,63.80
2019-04-03T17:55:33.536Z,65.00
2019-04-03T17:58:03.988Z,65.90
2019-04-03T18:00:35.070Z,66.00
2019-04-03T18:03:06.785Z,66.10
2019-04-03T18:05:37.217Z,66.70
2019-04-03T18:08:07.658Z,67.80
2019-04-03T18:10:38.071Z,68.90
2019-04-03T18:13:08.493Z,69.50
2019-04-03T18:15:38.925Z,70.80
2019-04-03T18:18:09.343Z,70.50
2019-04-03T18:20:40.163Z,72.20
2019-04-03T18:23:10.790Z,71.60
2019-04-03T18:25:41.729Z,71.40
2019-04-03T18:28:12.401Z,71.40
2019-04-03T18:30:43.084Z,71.80
2019-04-03T18:33:16.697Z,72.70
2019-04-03T18:35:45.965Z,73.10
2019-04-03T18:38:16.431Z,74.80
2019-04-03T18:40:46.916Z,75.70
2019-04-03T18:43:17.326Z,76.60
2019-04-03T18:45:47.752Z,77.90
2019-04-03T18:48:18.159Z,77.60
2019-04-03T18:50:48.799Z,78.80
2019-04-03T18:53:19.612Z,79.20
2019-04-03T18:55:51.027Z,81.20
2019-04-03T18:58:22.332Z,81.60
2019-04-03T19:00:53.550Z,82.90
2019-04-03T19:03:23.991Z,84.80
2019-04-03T19:05:54.446Z,85.80
2019-04-03T19:08:24.850Z,86.90
2019-04-03T19:11:01.982Z,86.80
2019-04-03T19:13:27.419Z,88.20
2019-04-03T19:15:58.110Z,89.00
2019-04-03T19:18:28.526Z,89.50
2019-04-03T19:20:59.062Z,90.40
2019-04-03T19:23:29.978Z,91.10
2019-04-03T19:26:00.775Z,91.70
2019-04-03T19:28:34.383Z,92.60
2019-04-03T19:31:03.714Z,92.60
2019-04-03T19:33:34.104Z,93.10
2019-04-03T19:36:04.495Z,93.30
2019-04-03T19:38:35.860Z,94.20
2019-04-03T19:41:06.737Z,94.90
2019-04-03T19:43:37.269Z,95.80
2019-04-03T19:46:07.743Z,95.60
2019-04-03T19:48:38.134Z,95.60
2019-04-03T19:51:08.564Z,95.40
2019-04-03T19:53:38.983Z,95.50
2019-04-03T19:56:09.783Z,95.60
2019-04-03T19:58:40.291Z,95.60
2019-04-03T20:01:10.683Z,95.50
2019-04-03T20:03:44.091Z,95.50
2019-04-03T20:06:33.335Z,95.60
2019-04-03T20:12:30.767Z,95.50
2019-04-03T20:18:40.779Z,95.30
2019-04-03T20:21:23.312Z,95.80
2019-04-03T20:24:05.807Z,95.80
2019-04-03T20:29:37.249Z,96.80
2019-04-03T20:32:19.003Z,96.80
2019-04-03T20:35:00.765Z,97.00
2019-04-03T20:37:44.026Z,97.10
2019-04-03T20:40:27.116Z,96.80
2019-04-03T20:43:11.098Z,96.20
2019-04-03T20:45:57.163Z,96.40
2019-04-03T20:48:39.520Z,96.70
2019-04-03T20:55:00.967Z,97.00
2019-04-03T20:57:54.765Z,97.40
2019-04-03T21:00:26.963Z,97.40
2019-04-03T21:03:12.692Z,97.20
2019-04-03T21:05:53.699Z,97.10
2019-04-03T21:08:35.372Z,97.40
2019-04-03T21:11:19.257Z,98.00
2019-04-03T21:14:01.494Z,98.60
2019-04-03T21:16:48.060Z,98.50
2019-04-03T21:19:30.463Z,98.80
2019-04-03T21:22:01.072Z,99.20
2019-04-03T21:31:11.795Z,99.80
2019-04-03T21:33:54.389Z,99.60
2019-04-03T21:36:38.420Z,99.90
2019-04-03T21:39:20.413Z,99.90
2019-04-03T21:42:02.115Z,99.90
2019-04-03T21:44:44.308Z,99.90
2019-04-03T21:47:26.594Z,99.90
2019-04-03T21:50:09.639Z,99.90
2019-04-03T21:52:53.763Z,99.90
2019-04-03T21:55:36.365Z,99.90
2019-04-03T21:58:20.231Z,99.90
2019-04-03T22:01:02.523Z,99.90
2019-04-03T22:03:44.299Z,99.90
2019-04-03T22:06:27.583Z,99.90
2019-04-03T22:11:53.502Z,99.90
2019-04-03T22:14:54.731Z,99.90
2019-04-03T22:17:36.715Z,99.90
2019-04-03T22:22:59.116Z,99.90
2019-04-03T22:25:41.559Z,99.90
2019-04-03T22:28:23.534Z,99.90
2019-04-03T22:31:05.880Z,99.90
2019-04-03T22:33:36.731Z,99.90
2019-04-03T22:36:07.262Z,99.90
2019-04-03T22:38:38.171Z,99.40
2019-04-03T22:41:12.117Z,99.50
2019-04-03T22:43:40.994Z,99.50
2019-04-03T22:46:11.552Z,99.50
2019-04-03T22:48:42.541Z,99.00
2019-04-03T22:51:13.035Z,98.90
2019-04-03T22:53:43.556Z,98.90
2019-04-03T22:56:16.746Z,98.80
2019-04-03T22:58:46.914Z,98.40
2019-04-03T23:01:17.438Z,98.30
2019-04-03T23:03:49.310Z,98.30
2019-04-03T23:06:19.996Z,97.70
2019-04-03T23:09:09.555Z,97.30
2019-04-03T23:12:01.027Z,97.00
2019-04-03T23:15:02.727Z,97.10
2019-04-03T23:17:45.362Z,96.70
2019-04-03T23:20:28.143Z,96.90
2019-04-03T23:23:10.544Z,97.20
2019-04-03T23:28:58.302Z,97.20
2019-04-03T23:31:40.902Z,97.10
2019-04-03T23:34:22.600Z,97.10
2019-04-03T23:37:04.303Z,96.90
2019-04-03T23:39:46.098Z,96.50
2019-04-03T23:42:28.436Z,96.10
2019-04-03T23:45:10.978Z,96.00
2019-04-03T23:47:54.838Z,95.80
2019-04-03T23:53:20.704Z,94.60
2019-04-03T23:56:03.143Z,94.40
2019-04-03T23:58:45.227Z,93.30
